This is the latest recevied weather packets stored in our database for station/object KQ4WWD. If no packets are shown the sender has not sent any weather packets the latest 10 day(s).
| Time | Temp. | Humidity | Pressure | Rain* | Wind** | Luminosity | Snow |
|---|---|---|---|---|---|---|---|
| 1777472887 | 26.11° C | 78% | 1017.6 hPa | 0 mm | - | 583 W/m² | - |
| 1777472583 | 26.67° C | 76% | 1017.8 hPa | 0 mm | - | 624 W/m² | - |
| 1777472280 | 26.11° C | 79% | 1017.5 hPa | 0 mm | - | 534 W/m² | - |
| 1777471976 | 25° C | 81% | 1017.7 hPa | 0 mm | - | 555 W/m² | - |
| 1777471672 | 25° C | 83% | 1017.7 hPa | 0 mm | - | 329 W/m² | - |
| 1777471369 | 25° C | 82% | 1017.6 hPa | 0 mm | - | 422 W/m² | - |
| 1777471065 | 25° C | 82% | 1017.4 hPa | 0 mm | - | 525 W/m² | - |
| 1777470762 | 25° C | 81% | 1017.5 hPa | 0 mm | - | 539 W/m² | - |
| 1777470459 | 25° C | 83% | 1017.8 hPa | 0 mm | - | 534 W/m² | - |
| 1777470155 | 25° C | 83% | 1017.6 hPa | 0 mm | - | 500 W/m² | - |
| 1777469852 | 24.44° C | 84% | 1017.5 hPa | 0 mm | - | 466 W/m² | - |
| 1777469548 | 23.89° C | 86% | 1017.7 hPa | 0 mm | - | 400 W/m² | - |
| 1777469248 | 23.33° C | 87% | 1017.9 hPa | 0 mm | - | 302 W/m² | - |
| 1777468943 | 23.33° C | 86% | 1018.2 hPa | 0 mm | - | 131 W/m² | - |
| 1777468639 | 23.33° C | 87% | 1018.1 hPa | 0 mm | - | 292 W/m² | - |
| 1777468336 | 22.78° C | 88% | 1017.9 hPa | 0 mm | - | 218 W/m² | - |
| 1777468032 | 22.78° C | 87% | 1017.8 hPa | 0 mm | - | 280 W/m² | - |
| 1777467729 | 22.78° C | 88% | 1017.9 hPa | 0 mm | - | 337 W/m² | - |
| 1777467424 | 22.22° C | 88% | 1018.1 hPa | 0 mm | - | 286 W/m² | - |
| 1777467119 | 22.22° C | 88% | 1018 hPa | 0 mm | - | 262 W/m² | - |
| 1777466817 | 21.67° C | 89% | 1017.6 hPa | 0 mm | - | 232 W/m² | - |
| 1777466515 | 21.11° C | 91% | 1017.4 hPa | 0 mm | - | 217 W/m² | - |
| 1777466210 | 20.56° C | 92% | 1017.5 hPa | 0 mm | - | 170 W/m² | - |
| 1777465907 | 20.56° C | 92% | 1017.5 hPa | 0 mm | - | 81 W/m² | - |
| 1777465603 | 20° C | 92% | 1017.5 hPa | 0 mm | - | 74 W/m² | - |
* Rain latest hour (hover to see other rain measurements)
** Current wind speed in m/s (hover to see current wind gust speed)